Terminal Aerodrome Forecast
Issued by NWS Sterling, VA

Home | Current Version | Previous Version | Text Only | Print | Product List | Glossary On
Versions: 1 2 3 4 5 6 7 8 9 10 11 12 13 14 15 16
000
FTUS41 KLWX 211000 AAA
TAFMRB
TAF AMD
KMRB 211051Z 2111/2206 00000KT 5SM BR SCT045
     FM211200 28003KT P6SM SCT003 BKN100
     FM211300 28004KT P6SM BKN045
     FM211700 29004KT 6SM -SHRA BKN040
     FM220000 29006KT P6SM -SHRA BKN035=

USA.gov is the U.S. government's official web portal to all federal, state and local government web resources and services.